Terminal Aerodrome Forecast
Issued by NWS Charleston, WV

Current Version | Previous Version | Graphics & Text | Print | Product List | Glossary On
Versions: 1 2 3 4 5 6 7 8 9 10 11 12 13 14 15 16 17 18 19 20 21 22 23 24
000
FTUS41 KRLX 260842 AAB
TAFBKW
TAF AMD
KBKW 260842Z 2609/2706 15008KT 6SM BR SCT005
      TEMPO 2610/2613 5SM BR BKN004
     FM261400 19007KT P6SM BKN025
     FM261800 22010G19KT P6SM BKN050
     FM261900 22009KT 6SM SHRA BKN050
     FM262100 22009KT 2SM SHRA VCTS BKN060CB
     FM270000 31008KT 3SM -SHRA OVC008
     FM270200 32007KT 6SM BR OVC003=

USA.gov is the U.S. government's official web portal to all federal, state and local government web resources and services.